Time;durP1;ratioP1;P1;durP2;ratioP2;P2;SDS_P1;SDS_P2;PMS_P1;PMS_P2;Temp;Humidity;BMP_temperature;BMP_pressure;BME280_temperature;BME280_humidity;BME280_pressure;Samples;Min_cycle;Max_cycle;Signal;HPM_P1;HPM_P2
2022/04/19 00:01:55;;;;;;;3.73;3.10;;;;;;;3.82;73.11;97338.28;6138388;28;20232;-81
2022/04/19 00:04:59;;;;;;;5.10;3.10;;;;;;;3.81;73.23;97341.81;6153151;28;20229;-81
2022/04/19 00:08:01;;;;;;;5.73;2.73;;;;;;;3.77;73.03;97340.34;6154153;28;20236;-80
2022/04/19 00:11:04;;;;;;;3.70;2.50;;;;;;;3.74;72.82;97337.91;6153737;28;20247;-81
2022/04/19 00:14:08;;;;;;;4.23;3.10;;;;;;;3.71;72.85;97333.69;6154242;28;20248;-80
2022/04/19 00:17:09;;;;;;;3.20;2.90;;;;;;;3.70;72.62;97329.41;6138572;28;20712;-81
2022/04/19 00:20:11;;;;;;;3.73;2.90;;;;;;;3.69;72.88;97328.56;6153632;28;20244;-81
2022/04/19 00:23:14;;;;;;;4.87;2.90;;;;;;;3.66;72.83;97333.16;6154398;28;20248;-81
2022/04/19 00:26:15;;;;;;;4.57;2.90;;;;;;;3.62;73.13;97327.25;6162370;28;20247;-81
2022/04/19 00:29:17;;;;;;;3.07;2.77;;;;;;;3.60;72.68;97329.09;6153967;28;20228;-81
2022/04/19 00:32:20;;;;;;;3.83;2.80;;;;;;;3.61;72.40;97324.72;6138332;28;20240;-81
2022/04/19 00:35:23;;;;;;;3.63;2.77;;;;;;;3.65;72.65;97321.88;6137794;28;20252;-81
2022/04/19 00:38:26;;;;;;;3.37;2.80;;;;;;;3.67;72.09;97325.22;6138468;28;20227;-81
2022/04/19 00:41:28;;;;;;;4.73;3.10;;;;;;;3.63;71.73;97328.09;6137653;28;20233;-81
2022/04/19 00:44:29;;;;;;;4.37;3.00;;;;;;;3.67;71.91;97324.38;6154139;28;20884;-81
2022/04/19 00:47:44;;;;;;;4.20;2.60;;;;;;;3.72;71.80;97324.94;6154112;28;20329;-81
2022/04/19 00:50:50;;;;;;;3.07;2.77;;;;;;;3.73;71.48;97316.19;6137756;28;20232;-81
2022/04/19 00:53:52;;;;;;;3.23;2.90;;;;;;;3.73;71.17;97318.78;6154262;28;20246;-81
2022/04/19 00:56:55;;;;;;;3.33;3.03;;;;;;;3.71;71.20;97315.44;6153927;28;20236;-80
2022/04/19 00:59:58;;;;;;;3.27;2.97;;;;;;;3.74;71.67;97299.59;6138540;28;20226;-81
2022/04/19 01:03:01;;;;;;;3.40;2.60;;;;;;;3.76;71.63;97297.75;6137249;28;20220;-82
2022/04/19 01:06:08;;;;;;;2.90;2.53;;;;;;;3.80;71.69;97293.16;6153923;28;20214;-82
2022/04/19 01:09:12;;;;;;;4.20;3.03;;;;;;;3.81;71.67;97281.81;6154567;28;20249;-82
2022/04/19 01:15:36;;;;;;;4.13;3.13;;;;;;;3.81;71.15;97272.19;6153492;28;20673;-81
2022/04/19 01:18:43;;;;;;;2.83;2.60;;;;;;;3.79;70.97;97268.03;6140645;28;20730;-81
2022/04/19 01:21:48;;;;;;;3.30;2.50;;;;;;;3.77;70.94;97270.72;6141201;28;20821;-81
2022/04/19 01:24:58;;;;;;;4.03;2.50;;;;;;;3.75;71.26;97263.91;6163121;28;20734;-81
2022/04/19 01:28:01;;;;;;;5.70;2.97;;;;;;;3.74;71.11;97263.06;6176077;28;20244;-81
2022/04/19 01:31:05;;;;;;;3.23;2.93;;;;;;;3.70;71.32;97259.78;6157881;28;20708;-82
2022/04/19 01:34:15;;;;;;;2.70;2.50;;;;;;;3.68;71.49;97263.44;6144058;28;20238;-80
2022/04/19 01:37:17;;;;;;;3.37;2.70;;;;;;;3.66;71.61;97255.69;6158953;28;20332;-81
2022/04/19 01:40:20;;;;;;;3.07;2.70;;;;;;;3.63;71.75;97255.88;6142683;28;20393;-81
2022/04/19 01:43:24;;;;;;;3.40;2.97;;;;;;;3.60;71.59;97266.47;6157481;28;20772;-81
2022/04/19 01:46:35;;;;;;;4.47;3.37;;;;;;;3.61;71.77;97256.88;6158378;28;20246;-82
2022/04/19 01:49:37;;;;;;;4.43;3.17;;;;;;;3.59;71.96;97256.97;6157029;28;20244;-80
2022/04/19 01:52:41;;;;;;;3.00;2.80;;;;;;;3.57;72.43;97258.03;6141042;28;20712;-81
2022/04/19 01:55:48;;;;;;;4.80;2.90;;;;;;;3.55;71.86;97258.09;6157436;28;20287;-81
2022/04/19 01:59:08;;;;;;;5.10;2.87;;;;;;;3.53;72.28;97259.13;6158610;28;20327;-81
2022/04/19 02:02:37;;;;;;;4.13;2.77;;;;;;;3.52;72.44;97266.09;6157861;28;20234;-81
2022/04/19 02:05:39;;;;;;;4.80;3.40;;;;;;;3.55;72.17;97257.25;6156824;28;20227;-81
2022/04/19 02:08:42;;;;;;;5.13;3.10;;;;;;;3.55;72.22;97260.72;6156660;28;20234;-81
2022/04/19 02:11:51;;;;;;;3.30;3.00;;;;;;;3.53;72.34;97256.50;6146360;28;20718;-81
2022/04/19 02:15:08;;;;;;;5.20;3.70;;;;;;;3.57;72.09;97252.81;6096034;28;20251;-81
2022/04/19 02:18:10;;;;;;;3.17;2.67;;;;;;;3.59;72.34;97251.75;6139097;28;20213;-81
2022/04/19 02:21:12;;;;;;;3.20;2.80;;;;;;;3.60;72.37;97240.41;6156076;28;20255;-81
2022/04/19 02:24:14;;;;;;;4.60;3.10;;;;;;;3.64;72.04;97243.66;6149177;28;20227;-81
2022/04/19 02:27:17;;;;;;;4.73;3.57;;;;;;;3.66;71.78;97244.44;6160031;28;20228;-81
2022/04/19 02:30:19;;;;;;;4.27;3.17;;;;;;;3.70;71.80;97238.91;6140961;28;20210;-81
2022/04/19 02:33:26;;;;;;;4.73;3.40;;;;;;;3.75;72.25;97233.44;6140450;28;20743;-81
2022/04/19 02:36:28;;;;;;;5.43;3.20;;;;;;;3.80;72.49;97231.38;6140144;28;20228;-81
2022/04/19 02:39:30;;;;;;;3.37;2.87;;;;;;;3.82;72.00;97231.28;6155427;28;20378;-81
2022/04/19 02:42:32;;;;;;;3.93;3.10;;;;;;;3.86;72.74;97224.97;6155863;28;20272;-81
2022/04/19 02:45:35;;;;;;;2.97;2.67;;;;;;;3.89;72.33;97214.34;6155747;28;20255;-81
2022/04/19 02:48:38;;;;;;;4.20;3.00;;;;;;;3.91;71.90;97215.91;6152497;28;20241;-81
2022/04/19 02:51:40;;;;;;;3.20;2.90;;;;;;;3.94;71.80;97214.88;6140383;28;20248;-81
2022/04/19 02:54:42;;;;;;;4.10;3.20;;;;;;;3.94;71.66;97213.13;6139958;28;20237;-81
2022/04/19 02:57:45;;;;;;;3.20;2.90;;;;;;;3.94;72.31;97205.28;6155010;28;20335;-81
2022/04/19 03:00:47;;;;;;;2.80;2.50;;;;;;;3.94;71.87;97202.66;6156179;28;20854;-81
2022/04/19 03:03:52;;;;;;;4.47;2.93;;;;;;;3.96;72.17;97210.41;6171229;28;20244;-81
2022/04/19 03:06:54;;;;;;;4.67;3.27;;;;;;;3.94;72.96;97199.22;6155755;28;20594;-81
2022/04/19 03:09:56;;;;;;;3.40;2.73;;;;;;;3.93;72.53;97201.00;6131514;28;20508;-81
2022/04/19 03:12:58;;;;;;;3.60;2.93;;;;;;;3.94;73.14;97205.28;6159572;28;20245;-81
2022/04/19 03:16:04;;;;;;;5.27;2.83;;;;;;;3.91;72.71;97208.06;6149638;28;20250;-81
2022/04/19 03:19:08;;;;;;;3.20;2.70;;;;;;;3.90;73.32;97206.38;6154373;28;20715;-81
2022/04/19 03:22:13;;;;;;;3.17;2.80;;;;;;;3.89;73.09;97203.91;6154954;28;20240;-81
2022/04/19 03:28:42;;;;;;;3.13;2.67;;;;;;;3.86;72.68;97191.03;6171819;28;20694;-81
2022/04/19 03:31:44;;;;;;;3.50;2.67;;;;;;;3.83;72.69;97192.03;6154262;28;20613;-81
2022/04/19 03:34:46;;;;;;;2.90;2.60;;;;;;;3.84;73.29;97187.66;6138853;28;20763;-81
2022/04/19 03:37:49;;;;;;;5.40;2.90;;;;;;;3.82;73.37;97187.75;6154634;28;20244;-81
2022/04/19 03:40:50;;;;;;;3.90;2.93;;;;;;;3.81;73.35;97186.06;6153774;28;20234;-81
2022/04/19 03:43:52;;;;;;;4.47;3.03;;;;;;;3.79;73.46;97179.28;6154529;28;20237;-81
2022/04/19 03:47:10;;;;;;;2.67;2.37;;;;;;;3.76;73.26;97180.31;6154295;28;20608;-81
2022/04/19 03:50:13;;;;;;;3.30;2.93;;;;;;;3.77;73.21;97192.44;6154880;28;20241;-81
2022/04/19 03:53:14;;;;;;;2.47;2.20;;;;;;;3.77;73.03;97188.97;6154557;28;20245;-81
2022/04/19 03:56:16;;;;;;;5.90;3.30;;;;;;;3.76;73.16;97182.09;6154674;28;20232;-81
2022/04/19 03:59:18;;;;;;;5.10;2.80;;;;;;;3.76;73.85;97176.88;6138190;28;20242;-81
2022/04/19 04:02:20;;;;;;;4.63;3.00;;;;;;;3.75;73.84;97175.19;6153971;28;20236;-82
2022/04/19 04:05:24;;;;;;;3.57;2.97;;;;;;;3.77;73.71;97181.16;6137916;28;20716;-81
2022/04/19 04:08:27;;;;;;;3.90;3.10;;;;;;;3.81;73.73;97182.63;6154858;28;20241;-81
2022/04/19 04:11:30;;;;;;;3.07;2.60;;;;;;;3.84;73.36;97187.66;6154206;28;20301;-81
2022/04/19 04:14:44;;;;;;;4.00;2.60;;;;;;;3.85;73.29;97184.97;6139715;28;20234;-81
2022/04/19 04:17:46;;;;;;;3.07;2.73;;;;;;;3.89;73.23;97193.47;6154049;28;20420;-82
2022/04/19 04:20:48;;;;;;;2.73;2.43;;;;;;;3.92;72.67;97195.84;6137911;28;20315;-80
2022/04/19 04:23:51;;;;;;;3.73;2.60;;;;;;;4.04;73.32;97190.72;6137756;28;20725;-80
2022/04/19 04:26:54;;;;;;;4.00;3.10;;;;;;;4.22;72.88;97195.72;6171752;28;20225;-80
2022/04/19 04:30:00;;;;;;;4.33;2.93;;;;;;;4.36;72.34;97191.34;6139389;28;20236;-80
2022/04/19 04:33:02;;;;;;;3.57;3.27;;;;;;;4.39;71.69;97185.09;6115616;28;20240;-80
2022/04/19 04:36:04;;;;;;;3.53;3.00;;;;;;;4.40;71.93;97192.78;6139687;28;20698;-80
2022/04/19 04:39:08;;;;;;;3.77;2.87;;;;;;;4.52;71.26;97179.88;6137538;28;20224;-80
2022/04/19 04:42:36;;;;;;;3.53;2.60;;;;;;;4.62;71.02;97186.19;6155268;28;20233;-81
2022/04/19 04:45:44;;;;;;;3.97;2.60;;;;;;;4.70;71.48;97182.16;6152545;28;20226;-80
2022/04/19 04:52:10;;;;;;;3.90;2.43;;;;;;;4.78;70.71;97190.34;6137258;28;20246;-80
2022/04/19 04:55:13;;;;;;;4.03;2.50;;;;;;;4.84;70.36;97181.25;6142416;28;20236;-80
2022/04/19 04:58:16;;;;;;;2.87;2.27;;;;;;;4.96;70.42;97185.69;6158036;28;20234;-80
2022/04/19 05:01:18;;;;;;;4.13;2.90;;;;;;;5.03;70.25;97180.88;6157173;28;20229;-81
2022/04/19 05:04:21;;;;;;;3.03;2.70;;;;;;;5.07;70.10;97185.00;6159116;28;20237;-81
2022/04/19 05:07:23;;;;;;;3.77;2.70;;;;;;;5.08;69.71;97184.91;6142182;28;20242;-80
2022/04/19 05:10:32;;;;;;;3.63;2.60;;;;;;;5.14;69.97;97184.47;6162569;28;20234;-80
2022/04/19 05:13:39;;;;;;;4.33;3.10;;;;;;;5.25;69.46;97182.94;6158042;28;20660;-80
2022/04/19 05:16:42;;;;;;;4.63;2.70;;;;;;;5.33;69.59;97185.84;6156124;28;20615;-80
2022/04/19 05:19:45;;;;;;;3.43;2.80;;;;;;;5.35;69.04;97187.44;6158312;28;20234;-81
2022/04/19 05:22:47;;;;;;;3.00;2.47;;;;;;;5.42;69.44;97188.69;6140591;28;20602;-80
2022/04/19 05:25:50;;;;;;;2.87;2.57;;;;;;;5.43;68.88;97195.59;6152822;28;20230;-80
2022/04/19 05:28:53;;;;;;;2.93;2.60;;;;;;;5.45;67.67;97195.50;6124112;28;20229;-80
2022/04/19 05:31:56;;;;;;;5.13;3.50;;;;;;;5.42;65.81;97195.69;6157021;28;20237;-80
2022/04/19 05:34:57;;;;;;;8.37;3.77;;;;;;;5.50;65.16;97193.41;6140963;28;20240;-80
2022/04/19 05:37:59;;;;;;;4.83;3.50;;;;;;;5.54;64.31;97203.56;6156916;28;20243;-80
2022/04/19 05:41:05;;;;;;;4.90;3.77;;;;;;;5.47;61.91;97197.09;6132412;28;20706;-80
2022/04/19 05:44:09;;;;;;;4.27;3.80;;;;;;;5.53;62.92;97204.50;6132467;28;20728;-81
2022/04/19 05:47:14;;;;;;;4.13;3.73;;;;;;;5.52;62.11;97204.59;6146639;28;20241;-81
2022/04/19 05:50:16;;;;;;;7.33;3.93;;;;;;;5.39;62.52;97201.97;6132245;28;21695;-81
2022/04/19 05:53:19;;;;;;;4.63;3.90;;;;;;;5.36;63.98;97202.19;6156783;28;20373;-80
2022/04/19 05:56:21;;;;;;;5.30;4.43;;;;;;;5.35;64.90;97199.69;6140726;28;20246;-80
2022/04/19 05:59:24;;;;;;;4.83;4.00;;;;;;;5.32;65.86;97207.72;6155324;28;20332;-80
2022/04/19 06:05:47;;;;;;;5.10;4.53;;;;;;;5.33;67.09;97207.63;6156006;28;20337;-80
2022/04/19 06:08:50;;;;;;;5.03;4.10;;;;;;;5.43;67.11;97205.22;6157158;28;20324;-80
2022/04/19 06:11:52;;;;;;;5.93;4.60;;;;;;;5.59;67.45;97208.47;6156626;28;20571;-80
2022/04/19 06:14:54;;;;;;;6.87;4.97;;;;;;;5.54;67.51;97208.81;6156639;28;20281;-81
2022/04/19 06:18:00;;;;;;;6.47;5.17;;;;;;;5.75;67.35;97195.19;6140672;28;20247;-80
2022/04/19 06:21:25;;;;;;;4.73;4.33;;;;;;;5.92;67.97;97202.75;6113823;28;20251;-80
2022/04/19 06:24:27;;;;;;;6.03;5.30;;;;;;;6.09;67.36;97197.16;6165058;28;20236;-80
2022/04/19 06:27:29;;;;;;;6.47;4.70;;;;;;;6.20;67.80;97196.41;6174723;28;20313;-80
2022/04/19 06:30:31;;;;;;;6.03;5.00;;;;;;;6.24;66.87;97188.25;6139770;28;20586;-80
2022/04/19 06:33:33;;;;;;;5.13;4.63;;;;;;;6.29;67.33;97177.41;6140409;28;20291;-80
2022/04/19 06:36:35;;;;;;;5.97;4.97;;;;;;;6.32;67.29;97182.44;6172113;28;20543;-80
2022/04/19 06:39:37;;;;;;;5.53;5.03;;;;;;;6.02;67.38;97184.63;6155083;28;20229;-79
2022/04/19 06:42:40;;;;;;;5.67;5.00;;;;;;;6.02;67.80;97180.22;6155793;28;20224;-79
2022/04/19 06:46:02;;;;;;;6.67;4.43;;;;;;;6.20;67.47;97171.06;6155708;28;20238;-80
2022/04/19 06:49:07;;;;;;;5.93;5.33;;;;;;;6.37;68.00;97176.91;6139787;28;20669;-79
2022/04/19 06:52:09;;;;;;;7.40;5.17;;;;;;;6.40;67.83;97184.53;6156408;28;20245;-80
2022/04/19 06:55:12;;;;;;;5.33;4.83;;;;;;;6.43;67.87;97181.69;6155478;28;20242;-80
2022/04/19 06:58:14;;;;;;;5.37;4.47;;;;;;;6.67;67.97;97169.44;6140449;28;20236;-80
2022/04/19 07:01:16;;;;;;;5.60;4.57;;;;;;;6.77;67.01;97162.59;6139393;28;20606;-81
2022/04/19 07:04:24;;;;;;;5.73;4.57;;;;;;;6.66;66.61;97171.22;6155830;28;20234;-80
2022/04/19 07:07:27;;;;;;;5.97;4.80;;;;;;;6.70;68.14;97169.19;6155613;28;20749;-80
2022/04/19 07:10:30;;;;;;;5.00;4.50;;;;;;;6.76;66.85;97166.16;6139431;28;20237;-79
2022/04/19 07:13:52;;;;;;;5.63;5.13;;;;;;;6.81;67.99;97171.03;6156771;28;20242;-80
2022/04/19 07:17:15;;;;;;;5.83;4.77;;;;;;;6.84;67.19;97171.66;6154147;28;20234;-80
2022/04/19 07:27:03;;;;;;;5.77;4.90;;;;;;;7.21;66.59;97169.75;6163437;28;20249;-80
2022/04/19 07:30:07;;;;;;;5.60;4.93;;;;;;;7.13;66.71;97168.66;6139032;28;20214;-80
2022/04/19 07:33:09;;;;;;;5.43;4.17;;;;;;;7.26;66.55;97167.66;6138997;28;20698;-79
2022/04/19 07:36:14;;;;;;;4.57;4.13;;;;;;;7.28;66.27;97164.91;6156123;28;20210;-79
2022/04/19 07:39:20;;;;;;;5.93;4.20;;;;;;;7.33;65.60;97158.34;6140328;28;20736;-80
2022/04/19 07:42:23;;;;;;;5.23;4.17;;;;;;;7.27;65.16;97157.97;6140625;28;20710;-81
2022/04/19 07:45:27;;;;;;;5.57;4.27;;;;;;;7.13;65.91;97153.75;6140988;28;20605;-79
2022/04/19 07:48:30;;;;;;;5.00;4.50;;;;;;;7.00;66.00;97153.84;6154969;28;20846;-80
2022/04/19 07:51:34;;;;;;;5.43;4.40;;;;;;;7.07;66.23;97148.97;6137721;28;20245;-80
2022/04/19 07:54:37;;;;;;;5.30;4.67;;;;;;;7.15;66.19;97148.41;6154479;28;20721;-80
2022/04/19 07:57:39;;;;;;;5.93;4.87;;;;;;;7.30;66.42;97150.69;6153812;28;20268;-80
2022/04/19 08:00:42;;;;;;;4.50;4.10;;;;;;;7.49;65.99;97138.78;6138079;28;20238;-80
2022/04/19 08:03:44;;;;;;;4.73;4.33;;;;;;;7.53;65.80;97133.19;6154583;28;21358;-80
2022/04/19 08:06:46;;;;;;;5.17;4.67;;;;;;;7.70;64.79;97147.66;6137617;28;20239;-80
2022/04/19 08:09:51;;;;;;;4.50;4.07;;;;;;;7.77;64.83;97141.00;6138374;28;20573;-80
2022/04/19 08:12:53;;;;;;;4.20;3.80;;;;;;;7.87;65.34;97141.09;6138365;28;20238;-81
2022/04/19 08:15:56;;;;;;;5.23;4.73;;;;;;;7.76;63.31;97132.28;6137608;28;20238;-81
2022/04/19 08:18:58;;;;;;;5.17;4.67;;;;;;;7.51;63.86;97132.47;6137693;28;20863;-80
2022/04/19 08:22:00;;;;;;;4.47;4.07;;;;;;;7.32;65.32;97133.06;6153692;28;20235;-80
2022/04/19 08:25:06;;;;;;;4.40;3.87;;;;;;;7.29;65.25;97130.66;6159766;28;20371;-80
2022/04/19 08:28:08;;;;;;;4.70;4.30;;;;;;;7.06;65.78;97128.09;6176230;28;20234;-80
2022/04/19 08:31:10;;;;;;;5.87;4.20;;;;;;;6.82;66.18;97121.09;6142902;28;20236;-81
2022/04/19 08:34:13;;;;;;;6.07;4.40;;;;;;;6.93;66.67;97134.25;6158234;28;20233;-79
2022/04/19 08:37:19;;;;;;;5.57;4.67;;;;;;;6.85;67.01;97128.75;6158444;28;20599;-80
2022/04/19 08:40:25;;;;;;;7.83;5.07;;;;;;;7.00;67.51;97130.22;6159700;28;20706;-80
2022/04/19 08:43:28;;;;;;;5.30;4.80;;;;;;;7.26;66.94;97125.66;6142469;28;20236;-80
2022/04/19 08:46:38;;;;;;;5.87;4.77;;;;;;;7.67;67.35;97116.41;6158319;28;20643;-80
2022/04/19 08:49:42;;;;;;;5.63;4.57;;;;;;;7.77;65.66;97117.34;6162369;28;20552;-80
2022/04/19 08:52:45;;;;;;;5.43;4.90;;;;;;;7.71;65.11;97112.56;6159238;28;20285;-81
2022/04/19 08:59:08;;;;;;;5.10;4.60;;;;;;;7.72;65.80;97119.47;6159763;28;20218;-80
2022/04/19 09:02:22;;;;;;;5.60;5.10;;;;;;;7.65;65.67;97111.25;6159597;28;20612;-80
2022/04/19 09:05:26;;;;;;;4.20;3.80;;;;;;;7.30;65.86;97108.69;6157643;28;20308;-80
2022/04/19 09:08:29;;;;;;;5.60;4.27;;;;;;;7.22;66.66;97105.84;6166421;28;20239;-81
2022/04/19 09:11:34;;;;;;;5.07;4.37;;;;;;;7.25;67.07;97102.97;6152475;28;20318;-80
2022/04/19 09:14:53;;;;;;;5.07;4.57;;;;;;;7.21;66.82;97109.41;6141042;28;20333;-80
2022/04/19 09:17:56;;;;;;;6.20;5.53;;;;;;;6.92;67.85;97119.47;6159115;28;20246;-80
2022/04/19 09:21:01;;;;;;;5.10;4.60;;;;;;;6.69;69.22;97114.28;6140898;28;20786;-79
2022/04/19 09:24:20;;;;;;;5.67;5.13;;;;;;;6.76;69.30;97108.47;6145807;28;20591;-80
2022/04/19 09:27:32;;;;;;;6.90;5.50;;;;;;;6.39;70.32;97106.88;6140803;28;20658;-80
2022/04/19 09:30:34;;;;;;;7.60;6.53;;;;;;;6.01;72.26;97115.69;6141297;28;20284;-80
2022/04/19 09:33:43;;;;;;;7.33;6.53;;;;;;;5.74;73.79;97112.38;6157956;28;20314;-80
2022/04/19 09:36:45;;;;;;;7.77;6.97;;;;;;;5.64;74.77;97119.19;6157621;28;20237;-79
2022/04/19 09:39:53;;;;;;;8.70;7.23;;;;;;;5.76;75.06;97102.63;6116494;28;20462;-79
2022/04/19 09:42:55;;;;;;;8.83;7.57;;;;;;;5.79;74.89;97112.88;6154308;28;20620;-79
2022/04/19 09:46:05;;;;;;;9.13;7.90;;;;;;;5.54;75.86;97108.50;6157238;28;20241;-79
2022/04/19 09:49:07;;;;;;;8.13;7.33;;;;;;;5.29;77.06;97109.34;6138161;28;20226;-80
2022/04/19 09:52:33;;;;;;;7.77;6.97;;;;;;;5.02;77.57;97109.44;6156829;28;20732;-81
2022/04/19 09:55:35;;;;;;;8.50;6.70;;;;;;;5.05;77.79;97105.81;6144006;28;20262;-80
2022/04/19 09:58:38;;;;;;;7.73;6.93;;;;;;;5.07;77.83;97114.38;6156929;28;20236;-80
2022/04/19 10:08:23;;;;;;;7.40;6.27;;;;;;;5.05;77.10;97108.41;6157670;28;20332;-80
2022/04/19 10:11:28;;;;;;;7.87;6.40;;;;;;;5.08;77.26;97114.28;6140103;28;20333;-80
2022/04/19 10:14:31;;;;;;;6.67;5.97;;;;;;;5.10;77.75;97120.22;6159265;28;20240;-80
2022/04/19 10:17:33;;;;;;;6.37;5.70;;;;;;;5.09;77.17;97115.13;6139607;28;20276;-80
2022/04/19 10:20:41;;;;;;;7.20;5.60;;;;;;;5.16;77.70;97121.59;6140165;28;20706;-81
2022/04/19 10:23:45;;;;;;;7.63;6.50;;;;;;;5.15;76.96;97123.38;6125352;28;20430;-80
2022/04/19 10:26:48;;;;;;;6.90;6.20;;;;;;;5.05;77.13;97124.09;6158530;28;20312;-81
2022/04/19 10:29:51;;;;;;;7.00;6.03;;;;;;;4.91;77.81;97126.78;6156985;28;20712;-81
2022/04/19 10:32:54;;;;;;;7.17;6.27;;;;;;;4.62;76.81;97126.09;6157295;28;20237;-80
2022/04/19 10:36:36;;;;;;;8.17;6.30;;;;;;;4.52;77.21;97132.84;6139835;28;20230;-81
2022/04/19 10:39:45;;;;;;;8.13;6.40;;;;;;;4.53;77.75;97134.53;6152320;28;20836;-80
2022/04/19 10:42:48;;;;;;;6.90;6.27;;;;;;;4.53;77.86;97132.75;6157407;28;20272;-80
2022/04/19 10:45:51;;;;;;;5.80;5.20;;;;;;;4.58;77.47;97135.09;6158879;28;20601;-80
2022/04/19 10:49:22;;;;;;;5.30;4.80;;;;;;;4.48;77.12;97126.19;6158307;28;20232;-80
2022/04/19 10:52:39;;;;;;;5.50;5.00;;;;;;;4.42;76.75;97135.22;6142339;28;20340;-80
2022/04/19 10:55:57;;;;;;;4.97;4.47;;;;;;;4.54;76.39;97138.84;6155699;28;20272;-80
2022/04/19 10:59:22;;;;;;;4.83;4.37;;;;;;;4.60;76.50;97133.19;6156341;28;20269;-80
2022/04/19 11:02:36;;;;;;;5.33;4.37;;;;;;;4.55;75.43;97141.34;6156526;28;20236;-80
2022/04/19 11:05:58;;;;;;;5.23;4.50;;;;;;;4.57;76.18;97146.47;6155150;28;20365;-80
2022/04/19 11:09:20;;;;;;;5.43;4.93;;;;;;;4.63;77.22;97141.69;6171019;28;20230;-81
2022/04/19 11:12:23;;;;;;;6.93;5.00;;;;;;;4.72;77.06;97140.25;6173915;28;20251;-81
2022/04/19 11:15:38;;;;;;;5.13;4.43;;;;;;;4.77;76.52;97144.25;6156367;28;20685;-80
2022/04/19 11:18:43;;;;;;;5.07;4.67;;;;;;;4.84;76.29;97136.81;6154414;28;20232;-80
2022/04/19 11:22:03;;;;;;;4.57;4.17;;;;;;;4.90;75.46;97139.03;6156270;28;20690;-80
2022/04/19 11:25:06;;;;;;;5.50;5.00;;;;;;;4.83;75.25;97143.00;6160467;28;20686;-80
2022/04/19 11:28:11;;;;;;;5.13;4.63;;;;;;;4.92;76.53;97139.75;6154554;28;20246;-80
2022/04/19 11:31:14;;;;;;;5.43;4.93;;;;;;;5.15;74.99;97141.69;6137864;28;20452;-81
2022/04/19 11:34:16;;;;;;;5.23;4.73;;;;;;;4.93;76.08;97141.44;6138649;28;20740;-81
2022/04/19 11:37:19;;;;;;;5.17;4.20;;;;;;;4.97;76.27;97142.94;6155378;28;20253;-80
2022/04/19 11:47:05;;;;;;;3.90;3.60;;;;;;;5.10;76.20;97146.38;6153407;28;20238;-80
2022/04/19 11:50:29;;;;;;;2.90;2.70;;;;;;;5.07;75.11;97146.59;6154183;28;20230;-80
2022/04/19 11:53:38;;;;;;;3.53;3.20;;;;;;;5.11;75.33;97136.75;6155668;28;20234;-80
2022/04/19 11:56:41;;;;;;;3.67;3.20;;;;;;;5.23;74.79;97135.94;6154237;28;20240;-80
2022/04/19 11:59:43;;;;;;;3.00;2.70;;;;;;;5.34;74.22;97135.22;6138634;28;20721;-80
2022/04/19 12:02:50;;;;;;;3.33;3.03;;;;;;;5.36;74.58;97126.31;6153474;28;20229;-80
2022/04/19 12:06:03;;;;;;;2.70;2.50;;;;;;;5.40;74.90;97129.53;6154433;28;20238;-80
2022/04/19 12:09:05;;;;;;;3.03;2.73;;;;;;;5.39;75.57;97131.31;6130265;28;20219;-80
2022/04/19 12:12:08;;;;;;;2.70;2.50;;;;;;;5.30;75.37;97126.72;6138872;28;20609;-80
2022/04/19 12:15:11;;;;;;;2.97;2.30;;;;;;;5.18;75.98;97136.25;6153796;28;20244;-80
2022/04/19 12:18:29;;;;;;;2.53;2.20;;;;;;;5.05;76.04;97138.00;6155115;28;20252;-80
2022/04/19 12:21:42;;;;;;;2.70;2.50;;;;;;;4.91;76.28;97135.47;6155079;28;20768;-80
2022/04/19 12:24:51;;;;;;;2.50;2.20;;;;;;;4.82;77.29;97138.69;6157552;28;20852;-80
2022/04/19 12:27:54;;;;;;;3.20;1.90;;;;;;;4.71;77.38;97139.41;6161364;28;20234;-80
2022/04/19 12:30:56;;;;;;;2.60;2.00;;;;;;;4.58;77.74;97141.16;6138046;28;20248;-80
2022/04/19 12:34:00;;;;;;;2.13;1.90;;;;;;;4.43;77.22;97142.97;6154052;28;20245;-81
2022/04/19 12:37:14;;;;;;;2.07;1.87;;;;;;;4.51;76.17;97136.41;6153868;28;20236;-80
2022/04/19 12:40:26;;;;;;;2.40;2.10;;;;;;;4.80;75.71;97125.72;6154040;28;20255;-81
2022/04/19 12:43:46;;;;;;;2.47;2.27;;;;;;;5.18;75.83;97132.81;6155453;28;20321;-80
2022/04/19 12:46:51;;;;;;;2.00;1.90;;;;;;;5.36;74.33;97131.56;6154070;28;20244;-80
2022/04/19 12:49:55;;;;;;;1.60;1.50;;;;;;;5.44;72.82;97131.88;6152668;28;20296;-80
2022/04/19 12:52:58;;;;;;;2.30;1.77;;;;;;;5.53;71.99;97127.78;6155047;28;20280;-80
2022/04/19 12:56:11;;;;;;;1.70;1.60;;;;;;;5.53;71.50;97133.84;6153606;28;20294;-80
2022/04/19 12:59:13;;;;;;;2.23;2.03;;;;;;;5.53;72.15;97125.16;6156429;28;20291;-80
2022/04/19 13:02:17;;;;;;;1.90;1.80;;;;;;;5.53;72.51;97125.16;6153229;28;20250;-80
2022/04/19 13:05:19;;;;;;;1.90;1.80;;;;;;;5.54;72.63;97127.69;6153330;28;20226;-80
2022/04/19 13:15:04;;;;;;;2.20;1.60;;;;;;;5.24;73.89;97132.38;6157316;28;20225;-80
2022/04/19 13:18:06;;;;;;;1.73;1.63;;;;;;;5.18;74.58;97123.19;6157617;28;20304;-80
2022/04/19 13:21:08;;;;;;;1.70;1.60;;;;;;;5.12;74.77;97134.03;6159167;28;20202;-80
2022/04/19 13:24:10;;;;;;;1.47;1.37;;;;;;;5.06;75.58;97131.84;6169196;28;20700;-80
2022/04/19 13:27:12;;;;;;;1.80;1.70;;;;;;;5.06;75.41;97126.63;6164556;28;20213;-80
2022/04/19 13:30:16;;;;;;;1.50;1.40;;;;;;;5.03;76.53;97126.81;6162540;28;20569;-80
2022/04/19 13:33:18;;;;;;;2.03;1.53;;;;;;;5.04;76.56;97119.81;6157261;28;20674;-80
2022/04/19 13:36:20;;;;;;;1.70;1.60;;;;;;;5.10;77.06;97119.38;6157326;28;20241;-80
2022/04/19 13:39:23;;;;;;;1.53;1.43;;;;;;;5.16;76.84;97119.00;6157140;28;20717;-81
2022/04/19 13:42:25;;;;;;;1.40;1.30;;;;;;;5.25;76.79;97117.53;6140373;28;20238;-80
2022/04/19 13:45:33;;;;;;;2.00;1.90;;;;;;;5.14;75.77;97124.31;6172285;28;20720;-80
2022/04/19 13:48:35;;;;;;;2.10;1.80;;;;;;;4.97;75.96;97126.41;6140702;28;20685;-80
2022/04/19 13:51:39;;;;;;;2.40;2.20;;;;;;;4.78;76.43;97125.00;6142506;28;20245;-80
2022/04/19 13:54:41;;;;;;;2.03;1.90;;;;;;;4.56;76.46;97129.97;6158950;28;20765;-80
2022/04/19 13:57:43;;;;;;;1.87;1.77;;;;;;;4.56;77.39;97129.13;6158283;28;20316;-80
2022/04/19 14:00:46;;;;;;;1.90;1.70;;;;;;;4.67;77.60;97118.81;6143505;28;20614;-80
2022/04/19 14:03:48;;;;;;;1.70;1.60;;;;;;;4.72;77.34;97120.16;6134363;28;20328;-80
2022/04/19 14:06:52;;;;;;;2.23;2.03;;;;;;;4.81;77.76;97122.16;6142203;28;20235;-80
2022/04/19 14:09:54;;;;;;;2.17;2.00;;;;;;;4.87;77.81;97117.50;6157091;28;20798;-80
2022/04/19 14:12:56;;;;;;;2.43;2.23;;;;;;;4.95;77.97;97105.59;6156769;28;20597;-80
2022/04/19 14:15:59;;;;;;;1.60;1.50;;;;;;;5.05;77.38;97104.03;6155180;28;20780;-80
2022/04/19 14:19:01;;;;;;;2.07;1.87;;;;;;;5.15;77.83;97104.22;6156865;28;20372;-81
2022/04/19 14:22:03;;;;;;;2.17;1.67;;;;;;;5.11;76.94;97108.81;6155212;28;20320;-80
2022/04/19 14:25:07;;;;;;;3.63;1.90;;;;;;;5.13;77.33;97096.50;6161927;28;20276;-80
2022/04/19 14:28:09;;;;;;;2.70;1.63;;;;;;;5.08;78.17;97097.75;6166930;28;20267;-80
2022/04/19 14:34:33;;;;;;;1.53;1.43;;;;;;;5.12;78.15;97105.28;6159407;28;20237;-81
2022/04/19 14:37:35;;;;;;;2.07;1.87;;;;;;;5.11;77.94;97114.06;6148119;28;20621;-80
2022/04/19 14:40:38;;;;;;;2.37;2.17;;;;;;;5.05;77.99;97114.47;6137754;28;20698;-80
2022/04/19 14:43:40;;;;;;;2.57;2.37;;;;;;;4.96;78.29;97114.25;6156197;28;20616;-80
2022/04/19 14:46:42;;;;;;;3.30;2.73;;;;;;;5.03;78.01;97103.28;6140213;28;20257;-80
2022/04/19 14:49:44;;;;;;;3.20;3.00;;;;;;;5.05;78.13;97092.72;6155985;28;20608;-80
2022/04/19 14:52:47;;;;;;;3.50;3.20;;;;;;;5.17;78.01;97079.66;6157111;28;20240;-80
2022/04/19 14:55:54;;;;;;;3.57;3.27;;;;;;;5.34;76.91;97094.19;6155528;28;20692;-81
2022/04/19 14:58:56;;;;;;;3.03;2.83;;;;;;;5.31;76.56;97101.41;6140167;28;20249;-80
2022/04/19 15:02:02;;;;;;;2.80;2.60;;;;;;;5.15;76.75;97122.53;6154887;28;20234;-80
2022/04/19 15:05:04;;;;;;;3.67;2.70;;;;;;;4.81;77.10;97113.50;6154904;28;20218;-80
2022/04/19 15:08:07;;;;;;;2.83;2.63;;;;;;;4.62;77.62;97118.25;6154388;28;20542;-80
2022/04/19 15:11:09;;;;;;;2.70;2.50;;;;;;;4.60;78.15;97127.97;6154977;28;20316;-80
2022/04/19 15:14:12;;;;;;;3.47;3.17;;;;;;;4.60;77.96;97136.66;6138998;28;20237;-80
2022/04/19 15:17:14;;;;;;;3.40;3.10;;;;;;;4.65;78.71;97137.19;6156376;28;20771;-80
2022/04/19 15:20:16;;;;;;;2.80;2.60;;;;;;;4.72;78.31;97148.06;6156460;28;20337;-80
2022/04/19 15:23:18;;;;;;;2.93;2.70;;;;;;;4.70;78.44;97150.78;6154896;28;20316;-80
2022/04/19 15:26:21;;;;;;;2.70;2.50;;;;;;;4.70;78.53;97150.78;6138604;28;20241;-80
2022/04/19 15:29:29;;;;;;;2.53;2.33;;;;;;;4.74;78.99;97164.50;6137854;28;20267;-81